Main page
METAR-TAF:

METAR-TAF

Airports :

City of Derry Airport

Derry, Northern Ireland

latitude: 55-03N, longitude: 007-09W, elevation: 9 m

Current weather observation

The report was made 15 hours and 1 minutes ago, at 16:50 UTC
Wind 20 kt from the Southwest with gusts up to 30 kt
Temperature 17°C
Humidity 68%
Pressure 993 hPa
Visibility 10 km or more
Few clouds at a height of 2400 ft
Scattered clouds at a height of 4000 ft
showers in vicinity

METAR: EGAE 171650Z 23020G30KT 9999 VCSH FEW024 SCT040 17/11 Q0993

Time: 08:51 (07:51 UTC)

Forecast

The report was made 17 hours and 58 minutes ago, at 13:53 UTC
Forecast valid from 17 at 15 UTC to 17 at 18 UTC
Wind 20 kt from the Southwest with gusts up to 34 kt
Visibility 10 km or more
Scattered clouds at a height of 2500 ft
Probability 40% :
Temporary
from 17 at 15 UTC to 17 at 18 UTC
Visibility: 5000 m
rain showers

TAF: EGAE 171353Z 1715/1718 22020G34KT 9999 SCT025 PROB40 TEMPO 1715/1718 5000 SHRA

Weather observations and forecasts of more than 4000 airports (METAR and TAF reports).

The available stations are represented by yellow and red dots on the map.

Hover mouse over dot to see the name of the station.

Then click to see weather observations and forecasts.

To change the map : click on the green buttons with a black cross to zoom in, on the green button with a dash to zoom out, or on the green arrows for adjacent maps.


METAR-TAF: